createdAt,value
2019-05-23T00:00:45.892Z,10.06
2019-05-23T00:01:45.945Z,10.04
2019-05-23T00:02:46.001Z,9.98
2019-05-23T00:03:46.059Z,9.95
2019-05-23T00:04:46.111Z,9.98
2019-05-23T00:05:46.184Z,9.98
2019-05-23T00:06:46.222Z,10.06
2019-05-23T00:07:46.276Z,9.96
2019-05-23T00:08:46.333Z,9.95
2019-05-23T00:09:46.390Z,9.98
2019-05-23T00:10:46.445Z,9.99
2019-05-23T00:11:46.506Z,9.99
2019-05-23T00:12:46.553Z,9.99
2019-05-23T00:13:46.607Z,9.98
2019-05-23T00:14:46.663Z,10.06
2019-05-23T00:15:46.718Z,10.13
2019-05-23T00:16:46.774Z,10.06
2019-05-23T00:17:46.837Z,10.06
2019-05-23T00:18:46.885Z,9.96
2019-05-23T00:19:46.941Z,9.95
2019-05-23T00:20:46.995Z,9.99
2019-05-23T00:21:47.057Z,10.02
2019-05-23T00:22:47.107Z,10.09
2019-05-23T00:23:47.162Z,10.07
2019-05-23T00:24:47.218Z,10.01
2019-05-23T00:25:47.273Z,9.92
2019-05-23T00:26:47.328Z,9.95
2019-05-23T00:27:47.382Z,9.83
2019-05-23T00:28:47.439Z,9.95
2019-05-23T00:29:47.494Z,9.96
2019-05-23T00:30:47.580Z,9.83
2019-05-23T00:31:47.605Z,9.80
2019-05-23T00:32:47.685Z,9.75
2019-05-23T00:33:47.714Z,9.78
2019-05-23T00:34:47.771Z,9.85
2019-05-23T00:35:47.827Z,9.85
2019-05-23T00:36:47.881Z,9.88
2019-05-23T00:37:47.936Z,9.86
2019-05-23T00:38:47.992Z,9.88
2019-05-23T00:39:48.047Z,9.68
2019-05-23T00:40:48.106Z,9.70
2019-05-23T00:41:48.157Z,9.71
2019-05-23T00:42:48.213Z,9.67
2019-05-23T00:43:48.267Z,9.70
2019-05-23T00:44:48.323Z,9.53
2019-05-23T00:45:48.378Z,9.62
2019-05-23T00:46:48.438Z,9.49
2019-05-23T00:47:48.487Z,9.49
2019-05-23T00:48:48.543Z,9.49
2019-05-23T00:49:48.599Z,9.45
2019-05-23T00:50:48.654Z,9.52
2019-05-23T00:51:48.710Z,9.52
2019-05-23T00:52:48.766Z,9.48
2019-05-23T00:53:48.821Z,9.44
2019-05-23T00:54:48.874Z,9.40
2019-05-23T00:55:48.934Z,9.40
2019-05-23T00:56:48.985Z,9.38
2019-05-23T00:57:49.039Z,9.34
2019-05-23T00:58:49.095Z,9.37
2019-05-23T00:59:49.152Z,9.49
2019-05-23T01:00:49.204Z,9.44
2019-05-23T01:01:49.275Z,9.50
2019-05-23T01:02:49.763Z,9.55
2019-05-23T01:03:50.000Z,9.50
2019-05-23T01:04:49.425Z,9.50
2019-05-23T01:05:50.158Z,9.48
2019-05-23T01:06:49.538Z,9.52
2019-05-23T01:07:50.252Z,9.50
2019-05-23T01:08:50.328Z,9.56
2019-05-23T01:09:49.701Z,9.50
2019-05-23T01:10:49.756Z,9.55
2019-05-23T01:11:49.810Z,9.42
2019-05-23T01:12:49.864Z,9.45
2019-05-23T01:13:49.921Z,9.48
2019-05-23T01:14:49.976Z,9.45
2019-05-23T01:15:50.031Z,9.37
2019-05-23T01:16:50.088Z,9.52
2019-05-23T01:17:50.146Z,9.50
2019-05-23T01:18:50.198Z,9.49
2019-05-23T01:19:50.253Z,9.35
2019-05-23T01:20:50.330Z,9.35
2019-05-23T01:21:50.360Z,9.38
2019-05-23T01:22:50.434Z,9.34
2019-05-23T01:23:50.469Z,9.34
2019-05-23T01:24:50.525Z,9.38
2019-05-23T01:25:50.581Z,9.35
2019-05-23T01:26:50.640Z,9.34
2019-05-23T01:27:50.752Z,9.40
2019-05-23T01:28:50.745Z,9.37
2019-05-23T01:29:50.800Z,9.35
2019-05-23T01:30:50.856Z,9.35
2019-05-23T01:31:50.909Z,9.31
2019-05-23T01:32:50.964Z,9.38
2019-05-23T01:33:51.020Z,9.32
2019-05-23T01:34:51.084Z,9.37
2019-05-23T01:35:51.141Z,9.45
2019-05-23T01:36:51.187Z,9.48
2019-05-23T01:37:51.239Z,9.48
2019-05-23T01:38:51.294Z,9.45
2019-05-23T01:39:51.350Z,9.41
2019-05-23T01:40:51.404Z,9.35
2019-05-23T01:41:51.465Z,9.34
2019-05-23T01:42:51.598Z,9.34
2019-05-23T01:43:51.569Z,9.26
2019-05-23T01:44:51.625Z,9.30
2019-05-23T01:45:51.681Z,9.26
2019-05-23T01:46:51.734Z,9.30
2019-05-23T01:47:51.789Z,9.22
2019-05-23T01:48:51.843Z,9.35
2019-05-23T01:49:51.900Z,9.30
2019-05-23T01:50:51.998Z,9.31
2019-05-23T01:51:52.009Z,9.24
2019-05-23T01:52:52.063Z,9.30
2019-05-23T01:53:52.120Z,9.16
2019-05-23T01:54:52.174Z,9.10
2019-05-23T01:55:52.234Z,9.04
2019-05-23T01:56:52.289Z,9.10
2019-05-23T01:57:52.338Z,9.04
2019-05-23T01:58:52.394Z,9.08
2019-05-23T02:00:08.392Z,8.94
2019-05-23T02:00:52.505Z,8.98
2019-05-23T02:01:52.558Z,8.93
2019-05-23T02:02:52.613Z,8.96
2019-05-23T02:03:52.669Z,9.06
2019-05-23T02:04:52.723Z,9.01
2019-05-23T02:05:52.779Z,8.96
2019-05-23T02:06:52.834Z,8.83
2019-05-23T02:07:52.888Z,8.91
2019-05-23T02:08:52.942Z,8.83
2019-05-23T02:09:52.999Z,8.85
2019-05-23T02:10:53.056Z,8.76
2019-05-23T02:11:53.110Z,8.76
2019-05-23T02:12:53.163Z,8.86
2019-05-23T02:13:53.220Z,8.76
2019-05-23T02:14:53.272Z,8.76
2019-05-23T02:15:53.326Z,8.78
2019-05-23T02:16:53.382Z,8.88
2019-05-23T02:17:53.435Z,8.93
2019-05-23T02:18:53.489Z,8.83
2019-05-23T02:19:53.543Z,8.86
2019-05-23T02:20:53.610Z,8.89
2019-05-23T02:21:53.654Z,8.86
2019-05-23T02:22:53.708Z,8.91
2019-05-23T02:23:53.764Z,9.01
2019-05-23T02:24:53.825Z,9.12
2019-05-23T02:25:53.875Z,9.08
2019-05-23T02:26:53.938Z,9.04
2019-05-23T02:27:53.982Z,9.04
2019-05-23T02:28:54.036Z,9.06
2019-05-23T02:29:54.094Z,9.04
2019-05-23T02:30:54.147Z,9.15
2019-05-23T02:31:54.201Z,9.03
2019-05-23T02:32:54.256Z,9.01
2019-05-23T02:33:54.318Z,9.03
2019-05-23T02:34:54.368Z,9.12
2019-05-23T02:35:54.420Z,9.10
2019-05-23T02:36:54.474Z,9.01
2019-05-23T02:37:54.532Z,9.00
2019-05-23T02:38:54.587Z,9.00
2019-05-23T02:39:54.638Z,8.98
2019-05-23T02:40:54.693Z,8.97
2019-05-23T02:41:54.750Z,8.97
2019-05-23T02:42:54.803Z,8.96
2019-05-23T02:43:54.859Z,9.08
2019-05-23T02:44:54.913Z,9.00
2019-05-23T02:45:54.966Z,9.15
2019-05-23T02:46:55.022Z,9.15
2019-05-23T02:47:55.081Z,9.13
2019-05-23T02:48:55.131Z,9.08
2019-05-23T02:49:55.187Z,9.04
2019-05-23T02:50:55.241Z,8.89
2019-05-23T02:51:55.296Z,9.04
2019-05-23T02:52:55.351Z,8.91
2019-05-23T02:53:55.407Z,8.96
2019-05-23T02:54:55.467Z,8.98
2019-05-23T02:55:55.516Z,9.04
2019-05-23T02:56:55.570Z,9.15
2019-05-23T02:57:55.625Z,9.06
2019-05-23T02:58:55.679Z,9.13
2019-05-23T02:59:55.733Z,9.10
2019-05-23T03:00:55.914Z,9.15
2019-05-23T03:01:55.850Z,9.16
2019-05-23T03:02:55.928Z,9.15
2019-05-23T03:03:55.953Z,9.24
2019-05-23T03:04:56.008Z,9.26
2019-05-23T03:05:56.067Z,9.34
2019-05-23T03:06:56.129Z,9.32
2019-05-23T03:07:56.173Z,9.31
2019-05-23T03:08:56.230Z,9.23
2019-05-23T03:09:56.289Z,9.15
2019-05-23T03:10:56.342Z,9.16
2019-05-23T03:11:56.393Z,9.12
2019-05-23T03:12:56.447Z,9.23
2019-05-23T03:13:56.502Z,9.26
2019-05-23T03:14:56.557Z,9.32
2019-05-23T03:15:56.613Z,9.24
2019-05-23T03:16:56.666Z,9.19
2019-05-23T03:17:56.728Z,9.20
2019-05-23T03:18:56.779Z,9.22
2019-05-23T03:19:56.834Z,9.26
2019-05-23T03:20:56.887Z,9.22
2019-05-23T03:21:56.940Z,9.23
2019-05-23T03:22:56.998Z,9.26
2019-05-23T03:23:57.052Z,9.32
2019-05-23T03:24:57.107Z,9.27
2019-05-23T03:25:57.161Z,9.32
2019-05-23T03:26:57.217Z,9.24
2019-05-23T03:27:57.272Z,9.26
2019-05-23T03:28:57.326Z,9.27
2019-05-23T03:29:57.381Z,9.27
2019-05-23T03:31:25.085Z,9.17
2019-05-23T03:31:57.492Z,9.19
2019-05-23T03:32:57.548Z,9.20
2019-05-23T03:33:57.626Z,9.30
2019-05-23T03:34:57.687Z,9.30
2019-05-23T03:35:57.713Z,9.16
2019-05-23T03:36:57.775Z,9.06
2019-05-23T03:37:57.823Z,9.03
2019-05-23T03:38:57.876Z,9.00
2019-05-23T03:39:57.932Z,8.98
2019-05-23T03:40:57.986Z,8.98
2019-05-23T03:41:58.044Z,8.93
2019-05-23T03:42:58.098Z,8.93
2019-05-23T03:43:58.156Z,8.86
2019-05-23T03:44:58.206Z,8.82
2019-05-23T03:45:58.260Z,8.79
2019-05-23T03:46:58.317Z,8.80
2019-05-23T03:47:58.371Z,8.76
2019-05-23T03:48:58.508Z,8.85
2019-05-23T03:49:58.480Z,8.83
2019-05-23T03:50:58.542Z,8.73
2019-05-23T03:51:58.600Z,8.75
2019-05-23T03:52:58.644Z,8.76
2019-05-23T03:53:58.700Z,8.78
2019-05-23T03:54:58.755Z,8.79
2019-05-23T03:55:58.811Z,8.73
2019-05-23T03:56:58.867Z,8.76
2019-05-23T03:57:58.947Z,8.65
2019-05-23T03:58:58.974Z,8.67
2019-05-23T03:59:59.029Z,8.68
2019-05-23T04:00:59.085Z,8.60
2019-05-23T04:01:59.149Z,8.58
2019-05-23T04:02:59.197Z,8.52
2019-05-23T04:03:59.248Z,8.52
2019-05-23T04:04:59.302Z,8.55
2019-05-23T04:05:59.360Z,8.49
2019-05-23T04:06:59.410Z,8.54
2019-05-23T04:07:59.464Z,8.55
2019-05-23T04:08:59.525Z,8.60
2019-05-23T04:09:59.583Z,8.64
2019-05-23T04:10:59.629Z,8.61
2019-05-23T04:11:59.685Z,8.71
2019-05-23T04:12:59.735Z,8.76
2019-05-23T04:13:59.793Z,8.80
2019-05-23T04:14:59.850Z,8.89
2019-05-23T04:15:59.906Z,8.89
2019-05-23T04:16:59.955Z,8.89
2019-05-23T04:18:00.010Z,8.85
2019-05-23T04:19:00.073Z,8.91
2019-05-23T04:20:00.234Z,8.97
2019-05-23T04:21:00.185Z,8.85
2019-05-23T04:22:00.227Z,8.86
2019-05-23T04:23:00.288Z,8.89
2019-05-23T04:24:00.335Z,8.83
2019-05-23T04:25:02.115Z,8.85
2019-05-23T04:26:00.446Z,8.97
2019-05-23T04:27:00.500Z,8.94
2019-05-23T04:28:00.555Z,9.01
2019-05-23T04:29:00.608Z,9.01
2019-05-23T04:30:00.708Z,9.10
2019-05-23T04:31:00.719Z,9.08
2019-05-23T04:32:07.776Z,9.00
2019-05-23T04:33:00.827Z,9.03
2019-05-23T04:34:00.894Z,9.17
2019-05-23T04:35:00.941Z,9.12
2019-05-23T04:36:00.991Z,9.13
2019-05-23T04:37:01.051Z,9.17
2019-05-23T04:38:01.109Z,9.17
2019-05-23T04:39:01.158Z,9.30
2019-05-23T04:40:01.210Z,9.27
2019-05-23T04:41:01.273Z,9.31
2019-05-23T04:42:01.320Z,9.22
2019-05-23T04:43:01.388Z,9.26
2019-05-23T04:44:01.462Z,9.35
2019-05-23T04:45:01.526Z,9.37
2019-05-23T04:46:01.638Z,9.37
2019-05-23T04:47:01.597Z,9.32
2019-05-23T04:48:01.667Z,9.35
2019-05-23T04:49:01.712Z,9.40
2019-05-23T04:50:01.853Z,9.48
2019-05-23T04:51:01.814Z,9.49
2019-05-23T04:52:01.870Z,9.48
2019-05-23T04:53:01.933Z,9.40
2019-05-23T04:54:01.988Z,9.44
2019-05-23T04:55:02.033Z,9.38
2019-05-23T04:56:02.095Z,9.41
2019-05-23T04:57:02.143Z,9.53
2019-05-23T04:58:04.402Z,9.55
2019-05-23T04:59:02.253Z,9.44
2019-05-23T05:00:02.318Z,9.37
2019-05-23T05:01:02.399Z,9.34
2019-05-23T05:02:02.512Z,9.37
2019-05-23T05:03:02.516Z,9.38
2019-05-23T05:04:02.904Z,9.40
2019-05-23T05:05:02.584Z,9.30
2019-05-23T05:06:02.639Z,9.38
2019-05-23T05:07:02.697Z,9.41
2019-05-23T05:08:02.801Z,9.38
2019-05-23T05:09:02.805Z,9.38
2019-05-23T05:10:02.860Z,9.50
2019-05-23T05:11:03.602Z,9.44
2019-05-23T05:12:02.970Z,9.35
2019-05-23T05:13:03.070Z,9.35
2019-05-23T05:14:03.439Z,9.32
2019-05-23T05:15:03.148Z,9.38
2019-05-23T05:16:03.192Z,9.45
2019-05-23T05:17:03.254Z,9.38
2019-05-23T05:18:03.300Z,9.48
2019-05-23T05:19:03.355Z,9.55
2019-05-23T05:20:03.411Z,9.52
2019-05-23T05:21:04.119Z,9.48
2019-05-23T05:22:03.521Z,9.49
2019-05-23T05:23:03.639Z,9.56
2019-05-23T05:24:03.640Z,9.63
2019-05-23T05:25:04.340Z,9.62
2019-05-23T05:26:03.744Z,9.62
2019-05-23T05:27:03.799Z,9.62
2019-05-23T05:28:03.865Z,9.67
2019-05-23T05:29:03.907Z,9.65
2019-05-23T05:30:03.964Z,9.63
2019-05-23T05:31:04.018Z,9.67
2019-05-23T05:32:04.313Z,9.75
2019-05-23T05:33:04.129Z,9.67
2019-05-23T05:34:04.185Z,9.68
2019-05-23T05:35:04.247Z,9.78
2019-05-23T05:36:04.307Z,9.85
2019-05-23T05:37:04.353Z,9.98
2019-05-23T05:38:04.414Z,10.01
2019-05-23T05:39:04.463Z,10.09
2019-05-23T05:40:04.518Z,10.18
2019-05-23T05:41:04.576Z,10.20
2019-05-23T05:42:04.628Z,10.24
2019-05-23T05:43:04.688Z,10.14
2019-05-23T05:44:04.739Z,10.20
2019-05-23T05:45:04.795Z,10.22
2019-05-23T05:46:04.852Z,10.14
2019-05-23T05:47:04.908Z,10.17
2019-05-23T05:48:04.969Z,10.17
2019-05-23T05:49:05.019Z,10.11
2019-05-23T05:50:05.075Z,10.20
2019-05-23T05:51:05.474Z,10.25
2019-05-23T05:52:05.186Z,10.42
2019-05-23T05:53:05.247Z,10.35
2019-05-23T05:54:05.330Z,10.47
2019-05-23T05:55:05.354Z,10.58
2019-05-23T05:56:05.575Z,10.62
2019-05-23T05:57:05.467Z,10.58
2019-05-23T05:58:05.525Z,10.57
2019-05-23T05:59:05.585Z,10.60
2019-05-23T06:00:05.637Z,10.62
2019-05-23T06:01:05.739Z,10.57
2019-05-23T06:02:05.756Z,10.52
2019-05-23T06:03:06.058Z,10.57
2019-05-23T06:04:05.858Z,10.57
2019-05-23T06:05:05.918Z,10.75
2019-05-23T06:06:05.971Z,10.70
2019-05-23T06:07:06.027Z,10.70
2019-05-23T06:08:06.092Z,10.81
2019-05-23T06:09:06.141Z,10.83
2019-05-23T06:10:06.197Z,10.90
2019-05-23T06:11:06.255Z,10.87
2019-05-23T06:12:06.316Z,10.91
2019-05-23T06:13:06.363Z,10.99
2019-05-23T06:14:06.425Z,11.01
2019-05-23T06:15:06.478Z,11.06
2019-05-23T06:16:06.543Z,11.17
2019-05-23T06:17:06.591Z,11.16
2019-05-23T06:18:06.648Z,11.13
2019-05-23T06:19:06.703Z,11.11
2019-05-23T06:20:06.761Z,11.16
2019-05-23T06:21:06.823Z,11.11
2019-05-23T06:22:07.251Z,11.17
2019-05-23T06:23:06.930Z,11.21
2019-05-23T06:24:06.982Z,11.24
2019-05-23T06:25:07.062Z,11.27
2019-05-23T06:26:07.095Z,11.20
2019-05-23T06:27:07.151Z,11.16
2019-05-23T06:28:07.207Z,11.05
2019-05-23T06:29:07.272Z,11.05
2019-05-23T06:30:07.327Z,11.21
2019-05-23T06:31:07.382Z,11.31
2019-05-23T06:32:07.433Z,11.30
2019-05-23T06:33:21.934Z,11.31
2019-05-23T06:34:07.608Z,11.38
2019-05-23T06:35:07.610Z,11.42
2019-05-23T06:36:07.658Z,11.45
2019-05-23T06:37:07.716Z,11.56
2019-05-23T06:38:07.771Z,11.53
2019-05-23T06:39:07.827Z,11.57
2019-05-23T06:40:07.889Z,11.48
2019-05-23T06:41:07.952Z,11.46
2019-05-23T06:42:07.996Z,11.48
2019-05-23T06:43:08.054Z,11.46
2019-05-23T06:44:08.114Z,11.70
2019-05-23T06:45:08.168Z,11.66
2019-05-23T06:46:08.220Z,11.72
2019-05-23T06:47:08.282Z,11.66
2019-05-23T06:48:08.334Z,11.64
2019-05-23T06:49:08.392Z,11.67
2019-05-23T06:50:08.447Z,11.64
2019-05-23T06:51:09.639Z,11.60
2019-05-23T06:52:08.565Z,11.72
2019-05-23T06:53:08.623Z,11.74
2019-05-23T06:54:08.673Z,11.78
2019-05-23T06:55:08.732Z,11.78
2019-05-23T06:56:08.807Z,11.84
2019-05-23T06:57:08.844Z,11.85
2019-05-23T06:58:08.901Z,11.93
2019-05-23T06:59:08.958Z,11.87
2019-05-23T07:00:09.012Z,12.03
2019-05-23T07:01:09.069Z,12.00
2019-05-23T07:02:09.228Z,12.15
2019-05-23T07:03:09.182Z,12.11
2019-05-23T07:04:09.249Z,12.11
2019-05-23T07:05:09.296Z,12.18
2019-05-23T07:06:09.351Z,12.26
2019-05-23T07:07:09.411Z,12.41
2019-05-23T07:08:09.467Z,12.48
2019-05-23T07:09:09.524Z,12.56
2019-05-23T07:10:09.592Z,12.55
2019-05-23T07:11:09.681Z,12.58
2019-05-23T07:12:09.703Z,12.63
2019-05-23T07:13:09.776Z,12.59
2019-05-23T07:14:09.805Z,12.63
2019-05-23T07:15:09.928Z,12.73
2019-05-23T07:16:09.918Z,12.69
2019-05-23T07:17:09.977Z,12.62
2019-05-23T07:18:10.032Z,12.76
2019-05-23T07:19:10.092Z,12.76
2019-05-23T07:20:10.149Z,12.70
2019-05-23T07:21:10.203Z,12.67
2019-05-23T07:22:10.260Z,12.70
2019-05-23T07:23:10.326Z,12.84
2019-05-23T07:24:10.382Z,12.85
2019-05-23T07:25:10.431Z,12.81
2019-05-23T07:26:10.489Z,12.89
2019-05-23T07:27:10.546Z,12.89
2019-05-23T07:28:10.609Z,12.98
2019-05-23T07:29:10.658Z,13.04
2019-05-23T07:30:11.288Z,13.17
2019-05-23T07:31:10.774Z,13.25
2019-05-23T07:32:10.830Z,13.35
2019-05-23T07:33:10.889Z,13.39
2019-05-23T07:34:10.948Z,13.39
2019-05-23T07:35:11.004Z,13.43
2019-05-23T07:36:11.059Z,13.53
2019-05-23T07:37:11.115Z,13.63
2019-05-23T07:38:11.539Z,13.61
2019-05-23T07:39:11.804Z,13.71
2019-05-23T07:40:11.430Z,13.71
2019-05-23T07:41:11.350Z,13.80
2019-05-23T07:42:11.555Z,13.84
2019-05-23T07:43:11.462Z,14.01
2019-05-23T07:44:11.539Z,14.06
2019-05-23T07:45:12.207Z,14.21
2019-05-23T07:46:11.632Z,14.21
2019-05-23T07:47:11.695Z,14.35
2019-05-23T07:48:11.745Z,14.38
2019-05-23T07:49:11.803Z,14.27
2019-05-23T07:50:11.873Z,14.44
2019-05-23T07:51:11.934Z,14.48
2019-05-23T07:52:11.976Z,14.46
2019-05-23T07:53:12.066Z,14.53
2019-05-23T07:54:12.113Z,14.60
2019-05-23T07:55:12.148Z,14.67
2019-05-23T07:56:12.214Z,14.83
2019-05-23T07:57:12.290Z,15.01
2019-05-23T07:58:13.892Z,15.15
2019-05-23T07:59:12.384Z,15.11
2019-05-23T08:00:12.445Z,15.19
2019-05-23T08:01:12.543Z,15.22
2019-05-23T08:02:12.554Z,15.37
2019-05-23T08:03:12.715Z,15.55
2019-05-23T08:04:21.256Z,15.66
2019-05-23T08:05:12.734Z,15.67
2019-05-23T08:06:13.230Z,15.85
2019-05-23T08:07:12.846Z,15.86
2019-05-23T08:08:12.907Z,15.92
2019-05-23T08:09:13.142Z,15.98
2019-05-23T08:10:13.019Z,16.13
2019-05-23T08:11:13.132Z,16.17
2019-05-23T08:12:13.135Z,16.17
2019-05-23T08:13:13.193Z,16.34
2019-05-23T08:14:13.253Z,16.26
2019-05-23T08:15:13.335Z,16.33
2019-05-23T08:16:13.369Z,16.34
2019-05-23T08:17:13.429Z,16.57
2019-05-23T08:18:13.487Z,16.60
2019-05-23T08:19:19.282Z,16.66
2019-05-23T08:20:13.604Z,16.82
2019-05-23T08:21:13.664Z,16.91
2019-05-23T08:22:13.723Z,17.07
2019-05-23T08:23:13.781Z,17.20
2019-05-23T08:24:13.838Z,17.18
2019-05-23T08:25:13.897Z,17.25
2019-05-23T08:26:13.958Z,17.30
2019-05-23T08:27:14.018Z,17.21
2019-05-23T08:28:14.085Z,17.35
2019-05-23T08:29:26.440Z,17.45
2019-05-23T08:30:14.829Z,17.55
2019-05-23T08:31:14.250Z,17.51
2019-05-23T08:32:14.309Z,17.65
2019-05-23T08:33:14.407Z,17.80
2019-05-23T08:34:14.428Z,17.84
2019-05-23T08:35:17.828Z,17.92
2019-05-23T08:36:14.545Z,18.01
2019-05-23T08:37:14.608Z,18.11
2019-05-23T08:38:14.664Z,18.16
2019-05-23T08:39:14.724Z,18.26
2019-05-23T08:40:14.784Z,18.34
2019-05-23T08:41:14.934Z,18.44
2019-05-23T08:42:14.903Z,18.50
2019-05-23T08:43:14.963Z,18.66
2019-05-23T08:44:15.023Z,18.78
2019-05-23T08:45:15.081Z,18.87
2019-05-23T08:46:15.174Z,18.87
2019-05-23T08:47:15.213Z,19.10
2019-05-23T08:48:15.261Z,19.30
2019-05-23T08:49:15.322Z,19.32
2019-05-23T08:50:15.382Z,19.43
2019-05-23T08:51:15.441Z,19.61
2019-05-23T08:52:15.502Z,19.65
2019-05-23T08:53:15.574Z,19.94
2019-05-23T08:54:15.622Z,20.00
2019-05-23T08:55:15.748Z,19.98
2019-05-23T08:56:18.800Z,20.04
2019-05-23T08:57:15.803Z,20.04
2019-05-23T08:58:15.863Z,20.15
2019-05-23T08:59:15.924Z,20.22
2019-05-23T09:00:15.985Z,20.23
2019-05-23T09:01:16.044Z,20.35
2019-05-23T09:02:16.111Z,20.33
2019-05-23T09:03:16.166Z,20.46
2019-05-23T09:04:16.228Z,20.51
2019-05-23T09:05:16.286Z,20.44
2019-05-23T09:06:16.348Z,20.38
2019-05-23T09:07:16.429Z,20.35
2019-05-23T09:08:17.380Z,20.44
2019-05-23T09:09:28.952Z,20.44
2019-05-23T09:10:16.591Z,20.61
2019-05-23T09:11:16.673Z,20.73
2019-05-23T09:12:16.711Z,20.76
2019-05-23T09:13:16.783Z,20.83
2019-05-23T09:14:17.373Z,20.83
2019-05-23T09:15:16.896Z,20.96
2019-05-23T09:16:16.961Z,20.98
2019-05-23T09:17:17.017Z,21.03
2019-05-23T09:18:17.080Z,20.94
2019-05-23T09:19:17.149Z,20.87
2019-05-23T09:20:17.201Z,20.69
2019-05-23T09:21:17.277Z,20.56
2019-05-23T09:22:17.323Z,20.73
2019-05-23T09:23:17.383Z,20.79
2019-05-23T09:24:17.453Z,21.00
2019-05-23T09:25:17.558Z,21.11
2019-05-23T09:26:17.606Z,21.11
2019-05-23T09:27:17.629Z,21.01
2019-05-23T09:28:18.085Z,21.27
2019-05-23T09:29:17.758Z,21.36
2019-05-23T09:30:17.812Z,21.38
2019-05-23T09:31:17.874Z,21.21
2019-05-23T09:32:18.001Z,21.28
2019-05-23T09:33:18.049Z,21.49
2019-05-23T09:34:18.059Z,21.73
2019-05-23T09:35:21.441Z,21.74
2019-05-23T09:36:18.181Z,21.77
2019-05-23T09:37:18.274Z,21.58
2019-05-23T09:38:18.304Z,21.58
2019-05-23T09:39:18.368Z,21.75
2019-05-23T09:41:06.232Z,21.96
2019-05-23T09:42:05.947Z,22.17
2019-05-23T09:43:06.007Z,22.17
2019-05-23T09:44:06.068Z,22.21
2019-05-23T09:45:06.133Z,22.31
2019-05-23T09:46:06.194Z,22.12
2019-05-23T09:47:06.255Z,22.02
2019-05-23T09:48:06.970Z,22.12
2019-05-23T09:49:06.379Z,22.31
2019-05-23T09:50:06.441Z,22.24
2019-05-23T09:51:06.509Z,22.24
2019-05-23T09:52:06.566Z,22.31
2019-05-23T09:53:06.630Z,22.31
2019-05-23T09:54:06.693Z,22.45
2019-05-23T09:55:06.806Z,22.66
2019-05-23T09:56:06.823Z,22.81
2019-05-23T09:57:06.884Z,23.00
2019-05-23T09:58:06.945Z,22.88
2019-05-23T09:59:07.005Z,22.20
2019-05-23T10:00:07.068Z,22.51
2019-05-23T10:01:07.363Z,22.78
2019-05-23T10:02:07.207Z,22.67
2019-05-23T10:03:07.259Z,22.49
2019-05-23T10:04:07.322Z,22.60
2019-05-23T10:05:07.391Z,22.42
2019-05-23T10:06:07.451Z,22.46
2019-05-23T10:07:07.513Z,22.46
2019-05-23T10:08:07.578Z,22.52
2019-05-23T10:09:07.651Z,22.64
2019-05-23T10:10:07.706Z,23.01
2019-05-23T10:11:07.770Z,23.22
2019-05-23T10:12:07.837Z,23.25
2019-05-23T10:13:07.900Z,23.42
2019-05-23T10:14:07.968Z,23.53
2019-05-23T10:15:08.027Z,23.63
2019-05-23T10:16:08.098Z,23.62
2019-05-23T10:17:08.160Z,24.06
2019-05-23T10:18:08.263Z,24.31
2019-05-23T10:19:08.292Z,24.16
2019-05-23T10:20:08.362Z,24.45
2019-05-23T10:21:08.427Z,24.92
2019-05-23T10:22:08.494Z,25.09
2019-05-23T10:23:08.559Z,24.45
2019-05-23T10:24:08.627Z,24.46
2019-05-23T10:25:08.698Z,24.64
2019-05-23T10:26:08.769Z,24.74
2019-05-23T10:27:08.846Z,24.84
2019-05-23T10:28:08.898Z,24.77
2019-05-23T10:29:08.982Z,24.64
2019-05-23T10:30:09.035Z,24.86
2019-05-23T10:31:09.109Z,25.04
2019-05-23T10:32:09.181Z,25.12
2019-05-23T10:33:11.906Z,25.60
2019-05-23T10:34:09.308Z,25.38
2019-05-23T10:35:09.378Z,25.39
2019-05-23T10:36:09.446Z,25.14
2019-05-23T10:37:09.514Z,25.19
2019-05-23T10:38:09.598Z,24.86
2019-05-23T10:39:09.655Z,23.92
2019-05-23T10:40:09.749Z,23.60
2019-05-23T10:41:09.790Z,23.09
2019-05-23T10:42:09.864Z,22.74
2019-05-23T10:43:09.928Z,23.19
2019-05-23T10:44:10.011Z,23.22
2019-05-23T10:45:10.064Z,23.16
2019-05-23T10:46:10.133Z,22.70
2019-05-23T10:47:10.203Z,22.29
2019-05-23T10:48:10.266Z,22.49
2019-05-23T10:49:10.334Z,23.00
2019-05-23T10:50:10.542Z,23.29
2019-05-23T10:51:10.475Z,23.82
2019-05-23T10:52:10.536Z,24.36
2019-05-23T10:53:10.605Z,24.68
2019-05-23T10:54:10.671Z,25.05
2019-05-23T10:55:10.740Z,25.34
2019-05-23T10:56:10.805Z,25.31
2019-05-23T10:57:11.466Z,25.34
2019-05-23T10:58:10.951Z,25.31
2019-05-23T10:59:11.007Z,24.87
2019-05-23T11:00:11.252Z,24.94
2019-05-23T11:01:11.151Z,25.08
2019-05-23T11:02:11.210Z,25.27
2019-05-23T11:03:11.281Z,25.83
2019-05-23T11:04:11.347Z,26.12
2019-05-23T11:05:13.914Z,26.59
2019-05-23T11:06:15.945Z,27.01
2019-05-23T11:07:11.560Z,26.78
2019-05-23T11:08:11.719Z,26.12
2019-05-23T11:09:11.693Z,26.59
2019-05-23T11:10:11.762Z,27.05
2019-05-23T11:11:14.457Z,27.48
2019-05-23T11:12:11.899Z,27.88
2019-05-23T11:13:11.969Z,28.18
2019-05-23T11:14:12.044Z,28.79
2019-05-23T11:15:12.117Z,29.36
2019-05-23T11:16:12.344Z,29.05
2019-05-23T11:17:12.284Z,29.00
2019-05-23T11:18:12.326Z,28.20
2019-05-23T11:19:12.441Z,28.08
2019-05-23T11:20:13.682Z,28.25
2019-05-23T11:21:12.543Z,27.88
2019-05-23T11:22:12.614Z,27.38
2019-05-23T11:23:12.685Z,27.13
2019-05-23T11:24:12.755Z,26.83
2019-05-23T11:25:12.839Z,27.30
2019-05-23T11:26:12.901Z,27.80
2019-05-23T11:27:12.973Z,27.63
2019-05-23T11:28:13.046Z,26.11
2019-05-23T11:29:13.117Z,25.54
2019-05-23T11:30:13.190Z,25.53
2019-05-23T11:31:13.264Z,25.81
2019-05-23T11:32:13.334Z,25.91
2019-05-23T11:33:13.407Z,26.00
2019-05-23T11:34:13.864Z,25.66
2019-05-23T11:35:13.548Z,25.83
2019-05-23T11:36:13.624Z,25.08
2019-05-23T11:37:13.694Z,25.04
2019-05-23T11:38:13.764Z,25.39
2019-05-23T11:39:14.539Z,25.81
2019-05-23T11:40:13.909Z,25.79
2019-05-23T11:41:13.978Z,25.60
2019-05-23T11:42:14.401Z,25.44
2019-05-23T11:43:14.117Z,25.19
2019-05-23T11:44:14.192Z,24.97
2019-05-23T11:45:14.259Z,24.71
2019-05-23T11:46:14.332Z,24.41
2019-05-23T11:47:14.401Z,24.31
2019-05-23T11:48:16.203Z,24.11
2019-05-23T11:49:14.539Z,24.24
2019-05-23T11:50:15.114Z,24.16
2019-05-23T11:51:14.673Z,24.14
2019-05-23T11:52:14.741Z,23.81
2019-05-23T11:53:14.811Z,23.63
2019-05-23T11:54:14.879Z,23.47
2019-05-23T11:55:14.945Z,23.35
2019-05-23T11:56:15.013Z,23.37
2019-05-23T11:57:15.082Z,23.57
2019-05-23T11:58:15.156Z,23.78
2019-05-23T11:59:15.215Z,23.90
2019-05-23T12:00:15.280Z,24.11
2019-05-23T12:01:20.889Z,24.45
2019-05-23T12:02:15.414Z,25.79
2019-05-23T12:03:15.478Z,25.98
2019-05-23T12:04:15.556Z,26.19
2019-05-23T12:05:15.614Z,25.98
2019-05-23T12:06:15.686Z,26.16
2019-05-23T12:07:15.748Z,26.72
2019-05-23T12:08:15.812Z,26.75
2019-05-23T12:09:15.882Z,26.08
2019-05-23T12:10:16.066Z,26.39
2019-05-23T12:11:16.058Z,26.91
2019-05-23T12:12:16.085Z,26.59
2019-05-23T12:13:16.153Z,26.65
2019-05-23T12:14:16.222Z,26.87
2019-05-23T12:15:16.291Z,26.56
2019-05-23T12:16:16.361Z,26.71
2019-05-23T12:17:16.430Z,26.73
2019-05-23T12:18:16.499Z,26.32
2019-05-23T12:19:16.567Z,26.04
2019-05-23T12:20:16.635Z,25.71
2019-05-23T12:21:16.705Z,25.46
2019-05-23T12:22:16.794Z,25.45
2019-05-23T12:23:16.845Z,25.38
2019-05-23T12:24:16.912Z,25.30
2019-05-23T12:25:22.962Z,24.94
2019-05-23T12:26:17.048Z,24.61
2019-05-23T12:27:17.116Z,24.67
2019-05-23T12:28:17.286Z,24.33
2019-05-23T12:29:17.255Z,24.14
2019-05-23T12:30:17.320Z,24.12
2019-05-23T12:31:17.542Z,23.93
2019-05-23T12:32:18.330Z,23.79
2019-05-23T12:33:17.531Z,23.92
2019-05-23T12:34:17.602Z,23.99
2019-05-23T12:35:17.655Z,24.00
2019-05-23T12:36:17.720Z,23.93
2019-05-23T12:37:19.898Z,23.99
2019-05-23T12:38:17.854Z,24.18
2019-05-23T12:39:18.068Z,24.16
2019-05-23T12:40:17.986Z,24.09
2019-05-23T12:41:18.060Z,23.97
2019-05-23T12:42:18.117Z,23.92
2019-05-23T12:43:18.185Z,23.63
2019-05-23T12:44:18.382Z,24.05
2019-05-23T12:45:18.314Z,24.04
2019-05-23T12:46:18.381Z,24.06
2019-05-23T12:47:18.450Z,24.33
2019-05-23T12:48:18.511Z,24.51
2019-05-23T12:49:18.591Z,24.71
2019-05-23T12:50:18.643Z,24.53
2019-05-23T12:51:18.707Z,24.51
2019-05-23T12:52:19.003Z,24.53
2019-05-23T12:53:18.839Z,24.51
2019-05-23T12:54:18.908Z,24.87
2019-05-23T12:55:18.972Z,25.60
2019-05-23T12:56:19.037Z,26.35
2019-05-23T12:57:19.102Z,26.87
2019-05-23T12:58:19.182Z,27.02
2019-05-23T12:59:19.244Z,27.46
2019-05-23T13:00:19.301Z,27.86
2019-05-23T13:01:19.369Z,27.11
2019-05-23T13:02:19.434Z,27.42
2019-05-23T13:03:19.501Z,27.50
2019-05-23T13:04:19.570Z,27.38
2019-05-23T13:05:19.638Z,27.48